createdAt,value
2022-09-20T00:00:52.737Z,9.48
2022-09-20T00:03:22.849Z,9.44
2022-09-20T00:05:55.075Z,9.46
2022-09-20T00:08:24.620Z,9.45
2022-09-20T00:10:55.240Z,9.46
2022-09-20T00:13:24.795Z,9.48
2022-09-20T00:15:54.308Z,9.52
2022-09-20T00:18:23.909Z,9.51
2022-09-20T00:20:56.294Z,9.50
2022-09-20T00:23:26.028Z,9.49
2022-09-20T00:25:59.390Z,9.52
2022-09-20T00:28:29.762Z,9.52
2022-09-20T00:30:59.842Z,9.54
2022-09-20T00:33:49.912Z,9.55
2022-09-20T00:36:19.506Z,9.55
2022-09-20T00:38:49.160Z,9.53
2022-09-20T00:41:19.011Z,9.53
2022-09-20T00:43:49.745Z,9.50
2022-09-20T00:46:25.573Z,9.49
2022-09-20T00:48:57.899Z,9.47
2022-09-20T00:51:32.216Z,9.45
2022-09-20T00:54:04.004Z,9.45
2022-09-20T00:56:36.091Z,9.43
2022-09-20T00:59:12.394Z,9.43
2022-09-20T01:01:42.142Z,9.41
2022-09-20T01:04:11.998Z,9.39
2022-09-20T01:06:44.938Z,9.36
2022-09-20T01:09:14.560Z,9.35
2022-09-20T01:11:44.475Z,9.32
2022-09-20T01:14:17.151Z,9.31
2022-09-20T01:16:46.807Z,9.30
2022-09-20T01:19:21.582Z,9.29
2022-09-20T01:21:54.815Z,9.27
2022-09-20T01:24:27.831Z,9.27
2022-09-20T01:27:13.800Z,9.27
2022-09-20T01:30:02.184Z,9.25
2022-09-20T01:32:49.047Z,9.20
2022-09-20T01:35:20.074Z,9.18
2022-09-20T01:38:00.190Z,9.17
2022-09-20T01:40:38.204Z,9.18
2022-09-20T01:43:14.733Z,9.20
2022-09-20T01:45:50.194Z,9.20
2022-09-20T01:48:28.744Z,9.13
2022-09-20T01:51:19.022Z,9.12
2022-09-20T01:54:21.199Z,9.11
2022-09-20T01:57:13.668Z,9.05
2022-09-20T02:00:11.037Z,8.93
2022-09-20T02:03:12.467Z,8.90
2022-09-20T02:06:05.398Z,8.84
2022-09-20T02:08:46.838Z,8.84
2022-09-20T02:11:19.043Z,8.81
2022-09-20T02:14:01.942Z,8.76
2022-09-20T02:16:46.899Z,8.70
2022-09-20T02:19:30.980Z,8.67
2022-09-20T02:22:12.924Z,8.63
2022-09-20T02:24:48.586Z,8.61
2022-09-20T02:27:27.002Z,8.61
2022-09-20T02:30:15.739Z,8.60
2022-09-20T02:32:58.608Z,8.60
2022-09-20T02:35:41.381Z,8.63
2022-09-20T02:38:34.338Z,8.64
2022-09-20T02:41:34.646Z,8.56
2022-09-20T02:44:09.961Z,8.57
2022-09-20T02:46:44.968Z,8.53
2022-09-20T02:49:20.166Z,8.51
2022-09-20T02:51:55.222Z,8.47
2022-09-20T02:54:34.603Z,8.45
2022-09-20T02:57:08.562Z,8.43
2022-09-20T02:59:43.307Z,8.39
2022-09-20T03:02:21.813Z,8.35
2022-09-20T03:04:59.251Z,8.31
2022-09-20T03:07:38.109Z,8.27
2022-09-20T03:10:17.929Z,8.25
2022-09-20T03:12:57.265Z,8.22
2022-09-20T03:15:33.728Z,8.18
2022-09-20T03:18:10.530Z,8.15
2022-09-20T03:20:49.346Z,8.12
2022-09-20T03:23:34.852Z,8.10
2022-09-20T03:26:12.384Z,8.08
2022-09-20T03:28:53.065Z,8.08
2022-09-20T03:31:35.474Z,8.02
2022-09-20T03:34:12.364Z,7.98
2022-09-20T03:36:55.875Z,7.97
2022-09-20T03:39:44.870Z,7.96
2022-09-20T03:42:21.366Z,7.95
2022-09-20T03:45:17.167Z,7.92
2022-09-20T03:48:02.516Z,7.92
2022-09-20T03:50:44.524Z,7.90
2022-09-20T03:53:49.124Z,7.89
2022-09-20T03:56:31.764Z,7.85
2022-09-20T03:59:17.351Z,7.85
2022-09-20T04:02:14.252Z,7.83
2022-09-20T04:04:48.675Z,7.81
2022-09-20T04:07:23.634Z,7.79
2022-09-20T04:10:06.854Z,7.78
2022-09-20T04:12:45.635Z,7.78
2022-09-20T04:15:26.538Z,7.77
2022-09-20T04:18:02.689Z,7.76
2022-09-20T04:20:38.646Z,7.78
2022-09-20T04:23:18.291Z,7.75
2022-09-20T04:25:49.887Z,7.77
2022-09-20T04:28:25.535Z,7.75
2022-09-20T04:30:57.893Z,7.74
2022-09-20T04:33:30.237Z,7.75
2022-09-20T04:36:18.638Z,7.75
2022-09-20T04:38:50.044Z,7.76
2022-09-20T04:41:39.170Z,7.76
2022-09-20T04:44:30.473Z,7.77
2022-09-20T04:47:44.463Z,7.80
2022-09-20T04:50:42.182Z,7.80
2022-09-20T04:53:34.357Z,7.82
2022-09-20T04:56:04.635Z,7.82
2022-09-20T04:58:49.747Z,7.84
2022-09-20T05:01:49.096Z,7.88
2022-09-20T05:04:44.430Z,7.91
2022-09-20T05:07:46.420Z,7.97
2022-09-20T05:10:45.203Z,7.98
2022-09-20T05:13:23.440Z,7.98
2022-09-20T05:15:59.165Z,7.98
2022-09-20T05:18:59.451Z,7.96
2022-09-20T05:21:46.530Z,8.00
2022-09-20T05:24:27.544Z,8.01
2022-09-20T05:27:06.222Z,8.05
2022-09-20T05:29:42.014Z,8.08
2022-09-20T05:32:15.239Z,8.10
2022-09-20T05:34:51.547Z,8.10
2022-09-20T05:37:31.518Z,8.14
2022-09-20T05:40:07.132Z,8.15
2022-09-20T05:42:44.243Z,8.17
2022-09-20T05:45:25.719Z,8.20
2022-09-20T05:47:59.602Z,8.24
2022-09-20T05:50:42.914Z,8.27
2022-09-20T05:53:36.674Z,8.33
2022-09-20T05:56:10.284Z,8.37
2022-09-20T05:58:58.165Z,8.35
2022-09-20T06:01:30.194Z,8.37
2022-09-20T06:04:08.381Z,8.41
2022-09-20T06:06:52.657Z,8.49
2022-09-20T06:09:32.792Z,8.53
2022-09-20T06:12:38.385Z,8.57
2022-09-20T06:15:19.638Z,8.61
2022-09-20T06:17:56.247Z,8.69
2022-09-20T06:20:31.119Z,8.73
2022-09-20T06:23:03.904Z,8.73
2022-09-20T06:25:42.879Z,8.77
2022-09-20T06:28:18.610Z,8.76
2022-09-20T06:30:50.683Z,8.77
2022-09-20T06:33:22.383Z,8.82
2022-09-20T06:35:58.846Z,8.85
2022-09-20T06:38:56.307Z,8.89
2022-09-20T06:41:32.464Z,8.96
2022-09-20T06:44:07.374Z,9.04
2022-09-20T06:46:38.619Z,9.11
2022-09-20T06:49:09.674Z,9.19
2022-09-20T06:51:41.440Z,9.28
2022-09-20T06:54:19.047Z,9.38
2022-09-20T06:56:49.013Z,9.47
2022-09-20T06:59:18.568Z,9.58
2022-09-20T07:01:48.132Z,9.67
2022-09-20T07:04:17.730Z,9.76
2022-09-20T07:06:47.550Z,9.86
2022-09-20T07:09:19.916Z,9.93
2022-09-20T07:11:49.501Z,10.03
2022-09-20T07:14:19.382Z,10.08
2022-09-20T07:16:48.973Z,10.16
2022-09-20T07:19:19.014Z,10.21
2022-09-20T07:21:48.732Z,10.24
2022-09-20T07:24:20.883Z,10.23
2022-09-20T07:27:00.903Z,10.27
2022-09-20T07:29:31.389Z,10.32
2022-09-20T07:32:01.043Z,10.35
2022-09-20T07:34:30.902Z,10.41
2022-09-20T07:37:00.764Z,10.46
2022-09-20T07:39:33.015Z,10.51
2022-09-20T07:42:06.210Z,10.54
2022-09-20T07:44:36.361Z,10.59
2022-09-20T07:47:06.359Z,10.64
2022-09-20T07:49:36.018Z,10.67
2022-09-20T07:52:06.147Z,10.79
2022-09-20T07:54:38.637Z,10.84
2022-09-20T07:57:08.317Z,10.91
2022-09-20T07:59:37.910Z,10.99
2022-09-20T08:02:07.616Z,11.02
2022-09-20T08:04:37.255Z,11.07
2022-09-20T08:07:06.978Z,11.13
2022-09-20T08:09:39.156Z,11.18
2022-09-20T08:14:58.697Z,11.33
2022-09-20T08:17:28.426Z,11.36
2022-09-20T08:19:57.984Z,11.45
2022-09-20T08:22:28.194Z,11.52
2022-09-20T08:25:00.384Z,11.60
2022-09-20T08:27:29.922Z,11.66
2022-09-20T08:30:01.140Z,11.70
2022-09-20T08:32:30.686Z,11.76
2022-09-20T08:35:00.218Z,11.81
2022-09-20T08:37:30.229Z,11.84
2022-09-20T08:40:02.445Z,11.98
2022-09-20T08:42:36.616Z,12.04
2022-09-20T08:45:22.251Z,12.09
2022-09-20T08:47:58.507Z,12.10
2022-09-20T08:50:29.090Z,12.10
2022-09-20T08:53:00.665Z,12.11
2022-09-20T08:55:37.387Z,12.19
2022-09-20T08:58:09.116Z,12.25
2022-09-20T09:00:40.904Z,12.31
2022-09-20T09:03:16.894Z,12.37
2022-09-20T09:05:48.306Z,12.54
2022-09-20T09:08:21.313Z,12.61
2022-09-20T09:10:56.444Z,12.73
2022-09-20T09:13:28.861Z,12.77
2022-09-20T09:16:01.178Z,12.84
2022-09-20T09:18:36.175Z,12.91
2022-09-20T09:21:07.864Z,12.94
2022-09-20T09:23:43.913Z,12.96
2022-09-20T09:26:22.271Z,13.03
2022-09-20T09:29:17.092Z,13.09
2022-09-20T09:31:47.512Z,13.14
2022-09-20T09:34:33.450Z,13.18
2022-09-20T09:37:03.021Z,13.27
2022-09-20T09:39:34.402Z,13.34
2022-09-20T09:42:23.780Z,13.44
2022-09-20T09:44:53.380Z,13.42
2022-09-20T09:47:27.592Z,13.50
2022-09-20T09:50:02.634Z,13.54
2022-09-20T09:52:36.425Z,13.57
2022-09-20T09:55:07.536Z,13.62
2022-09-20T09:57:51.960Z,13.64
2022-09-20T10:00:23.141Z,13.62
2022-09-20T10:03:03.642Z,13.63
2022-09-20T11:11:37.736Z,13.58
2022-09-20T11:14:10.704Z,13.62
2022-09-20T11:16:43.487Z,13.74
2022-09-20T11:19:20.575Z,13.86
2022-09-20T11:21:55.437Z,14.08
2022-09-20T11:24:36.527Z,14.24
2022-09-20T11:27:10.796Z,14.40
2022-09-20T11:29:43.545Z,14.37
2022-09-20T11:32:17.215Z,14.40
2022-09-20T11:34:53.924Z,14.41
2022-09-20T11:37:28.296Z,14.41
2022-09-20T11:39:59.415Z,14.41
2022-09-20T11:42:33.562Z,14.42
2022-09-20T11:45:04.009Z,14.43
2022-09-20T11:47:53.980Z,14.44
2022-09-20T11:50:57.716Z,14.47
2022-09-20T11:53:59.390Z,14.49
2022-09-20T11:56:32.668Z,14.50
2022-09-20T11:59:04.737Z,14.58
2022-09-20T12:01:37.429Z,14.61
2022-09-20T12:04:32.395Z,14.63
2022-09-20T12:07:10.517Z,14.68
2022-09-20T12:09:47.640Z,14.72
2022-09-20T12:12:21.619Z,14.75
2022-09-20T12:14:58.787Z,14.80
2022-09-20T12:18:09.533Z,14.83
2022-09-20T12:21:08.998Z,14.95
2022-09-20T12:24:12.215Z,14.94
2022-09-20T12:26:51.249Z,15.03
2022-09-20T12:29:55.044Z,15.04
2022-09-20T12:32:46.483Z,15.19
2022-09-20T12:35:59.737Z,15.30
2022-09-20T12:38:38.054Z,15.39
2022-09-20T12:41:17.348Z,15.53
2022-09-20T12:44:07.398Z,15.62
2022-09-20T12:46:44.870Z,15.68
2022-09-20T12:50:00.064Z,15.71
2022-09-20T12:53:04.506Z,15.68
2022-09-20T12:55:55.717Z,15.68
2022-09-20T12:58:32.687Z,15.70
2022-09-20T13:01:35.245Z,15.65
2022-09-20T13:04:56.727Z,15.60
2022-09-20T13:07:41.300Z,15.62
2022-09-20T13:10:30.331Z,15.60
2022-09-20T13:13:10.234Z,15.54
2022-09-20T13:15:41.348Z,15.53
2022-09-20T13:18:16.871Z,15.57
2022-09-20T13:20:47.743Z,15.63
2022-09-20T13:23:23.730Z,15.62
2022-09-20T13:25:54.584Z,15.64
2022-09-20T13:28:34.773Z,15.63
2022-09-20T13:31:29.658Z,15.66
2022-09-20T13:34:32.662Z,15.64
2022-09-20T13:37:06.804Z,15.62
2022-09-20T13:39:39.179Z,15.72
2022-09-20T13:42:20.162Z,15.87
2022-09-20T13:44:51.734Z,15.99
2022-09-20T13:47:30.071Z,16.02
2022-09-20T13:50:05.465Z,15.99
2022-09-20T13:52:49.096Z,15.89
2022-09-20T13:55:33.458Z,15.81
2022-09-20T13:58:06.022Z,15.79
2022-09-20T14:00:37.160Z,15.80
2022-09-20T14:03:07.172Z,15.85
2022-09-20T14:05:37.057Z,15.85
2022-09-20T14:08:09.238Z,15.82
2022-09-20T14:10:42.943Z,15.79
2022-09-20T14:13:18.506Z,15.72
2022-09-20T14:15:49.249Z,15.68
2022-09-20T14:18:21.298Z,15.64
2022-09-20T14:20:51.310Z,15.60
2022-09-20T14:23:28.723Z,15.57
2022-09-20T14:26:20.272Z,15.51
2022-09-20T14:28:50.043Z,15.50
2022-09-20T14:31:23.492Z,15.48
2022-09-20T14:33:55.475Z,15.47
2022-09-20T14:36:27.376Z,15.43
2022-09-20T14:39:02.243Z,15.39
2022-09-20T14:41:37.638Z,15.38
2022-09-20T14:44:09.277Z,15.35
2022-09-20T14:46:40.069Z,15.35
2022-09-20T14:49:23.202Z,15.33
2022-09-20T14:51:53.124Z,15.32
2022-09-20T14:54:32.387Z,15.30
2022-09-20T14:57:02.335Z,15.26
2022-09-20T14:59:40.018Z,15.23
2022-09-20T15:02:15.873Z,15.23
2022-09-20T15:04:54.876Z,15.22
2022-09-20T15:07:24.728Z,15.19
2022-09-20T15:09:57.009Z,15.20
2022-09-20T15:12:26.553Z,15.14
2022-09-20T15:14:56.217Z,15.10
2022-09-20T15:17:25.810Z,15.12
2022-09-20T15:19:55.378Z,15.08
2022-09-20T15:22:25.026Z,15.12
2022-09-20T15:24:57.140Z,15.02
2022-09-20T15:27:28.458Z,14.99
2022-09-20T15:29:58.151Z,14.97
2022-09-20T15:32:27.834Z,14.96
2022-09-20T15:34:57.443Z,14.93
2022-09-20T15:37:27.105Z,14.94
2022-09-20T15:39:59.314Z,14.92
2022-09-20T15:42:29.001Z,14.91
2022-09-20T15:44:58.603Z,14.87
2022-09-20T15:47:28.498Z,14.83
2022-09-20T15:49:59.875Z,14.85
2022-09-20T15:52:29.673Z,14.82
2022-09-20T15:55:03.687Z,14.81
2022-09-20T15:57:34.151Z,14.81
2022-09-20T16:00:04.018Z,14.83
2022-09-20T16:02:38.038Z,14.80
2022-09-20T16:05:10.032Z,14.79
2022-09-20T16:07:39.781Z,14.77
2022-09-20T16:10:12.408Z,14.77
2022-09-20T16:12:41.943Z,14.76
2022-09-20T16:15:14.495Z,14.76
2022-09-20T16:18:12.123Z,14.72
2022-09-20T16:20:43.048Z,14.70
2022-09-20T16:23:13.795Z,14.71
2022-09-20T16:25:50.850Z,14.69
2022-09-20T16:28:21.438Z,14.67
2022-09-20T16:31:00.140Z,14.65
2022-09-20T16:33:30.858Z,14.63
2022-09-20T16:36:02.565Z,14.59
2022-09-20T16:38:32.446Z,14.55
2022-09-20T16:41:05.675Z,14.54
2022-09-20T16:43:35.815Z,14.53
2022-09-20T16:46:06.327Z,14.51
2022-09-20T16:48:36.888Z,14.48
2022-09-20T16:51:08.618Z,14.47
2022-09-20T16:53:39.842Z,14.44
2022-09-20T16:56:21.885Z,14.39
2022-09-20T16:58:52.408Z,14.36
2022-09-20T17:01:23.681Z,14.35
2022-09-20T17:03:54.927Z,14.31
2022-09-20T17:06:26.301Z,14.29
2022-09-20T17:08:59.132Z,14.28
2022-09-20T17:11:33.000Z,14.25
2022-09-20T17:14:02.576Z,14.23
2022-09-20T17:16:34.158Z,14.20
2022-09-20T17:19:07.362Z,14.14
2022-09-20T17:21:38.716Z,14.10
2022-09-20T17:24:09.715Z,14.06
2022-09-20T17:26:44.490Z,14.10
2022-09-20T17:29:17.465Z,14.06
2022-09-20T17:31:54.572Z,13.97
2022-09-20T17:34:26.283Z,13.93
2022-09-20T17:36:56.821Z,13.89
2022-09-20T17:39:26.719Z,13.85
2022-09-20T17:41:58.911Z,13.83
2022-09-20T17:44:28.645Z,13.75
2022-09-20T17:46:58.955Z,13.72
2022-09-20T17:49:30.186Z,13.66
2022-09-20T17:51:59.834Z,13.62
2022-09-20T17:54:29.502Z,13.57
2022-09-20T17:57:01.733Z,13.52
2022-09-20T17:59:32.437Z,13.47
2022-09-20T18:02:01.997Z,13.40
2022-09-20T18:04:31.637Z,13.35
2022-09-20T18:07:01.770Z,13.29
2022-09-20T18:09:31.342Z,13.22
2022-09-20T18:12:05.009Z,13.16
2022-09-20T18:14:34.610Z,13.13
2022-09-20T18:17:05.560Z,13.08
2022-09-20T18:19:35.694Z,12.99
2022-09-20T18:22:06.084Z,12.93
2022-09-20T18:24:35.726Z,12.85
2022-09-20T18:27:07.942Z,12.81
2022-09-20T18:29:37.621Z,12.77
2022-09-20T18:32:08.720Z,12.71
2022-09-20T18:34:38.483Z,12.68
2022-09-20T18:37:13.782Z,12.62
2022-09-20T18:39:44.343Z,12.54
2022-09-20T18:42:16.491Z,12.46
2022-09-20T18:44:46.042Z,12.40
2022-09-20T18:47:15.614Z,12.35
2022-09-20T18:49:45.260Z,12.30
2022-09-20T18:52:15.920Z,12.28
2022-09-20T18:54:45.484Z,12.23
2022-09-20T18:57:18.396Z,12.21
2022-09-20T18:59:54.473Z,12.15
2022-09-20T19:02:51.102Z,12.10
2022-09-20T19:05:28.266Z,12.08
2022-09-20T19:08:09.168Z,12.03
2022-09-20T19:10:44.588Z,12.00
2022-09-20T19:13:25.657Z,11.97
2022-09-20T19:16:07.193Z,11.92
2022-09-20T19:18:56.235Z,11.89
2022-09-20T19:21:31.034Z,11.84
2022-09-20T19:24:08.996Z,11.80
2022-09-20T19:26:40.092Z,11.74
2022-09-20T19:29:20.135Z,11.71
2022-09-20T19:31:51.260Z,11.68
2022-09-20T19:34:23.030Z,11.61
2022-09-20T19:37:03.819Z,11.58
2022-09-20T19:39:44.160Z,11.53
2022-09-20T19:42:20.044Z,11.47
2022-09-20T19:45:00.474Z,11.42
2022-09-20T19:47:37.981Z,11.39
2022-09-20T19:50:18.605Z,11.35
2022-09-20T19:52:49.950Z,11.32
2022-09-20T19:55:20.665Z,11.27
2022-09-20T19:57:51.341Z,11.21
2022-09-20T20:00:24.764Z,11.15
2022-09-20T20:02:55.277Z,11.13
2022-09-20T20:05:27.801Z,11.07
2022-09-20T20:08:05.941Z,11.03
2022-09-20T20:10:40.730Z,10.98
2022-09-20T20:13:35.297Z,10.94
2022-09-20T20:16:10.689Z,10.89
2022-09-20T20:18:44.687Z,10.85
2022-09-20T20:21:20.992Z,10.79
2022-09-20T20:24:01.081Z,10.72
2022-09-20T20:26:31.353Z,10.69
2022-09-20T20:29:00.957Z,10.62
2022-09-20T20:31:33.492Z,10.60
2022-09-20T20:34:03.117Z,10.57
2022-09-20T20:36:32.717Z,10.56
2022-09-20T20:39:02.737Z,10.52
2022-09-20T20:41:32.940Z,10.47
2022-09-20T20:44:05.941Z,10.45
2022-09-20T20:46:38.181Z,10.42
2022-09-20T20:49:07.810Z,10.39
2022-09-20T20:51:37.612Z,10.34
2022-09-20T20:54:08.053Z,10.29
2022-09-20T20:56:37.616Z,10.28
2022-09-20T20:59:07.562Z,10.22
2022-09-20T21:01:42.845Z,10.18
2022-09-20T21:04:12.685Z,10.16
2022-09-20T21:06:44.065Z,10.12
2022-09-20T21:09:14.019Z,10.09
2022-09-20T21:11:44.854Z,10.06
2022-09-20T21:14:15.967Z,10.01
2022-09-20T21:16:48.690Z,9.96
2022-09-20T21:19:18.887Z,9.92
2022-09-20T21:21:50.061Z,9.87
2022-09-20T21:24:19.745Z,9.87
2022-09-20T21:26:49.534Z,9.82
2022-09-20T21:29:19.640Z,9.79
2022-09-20T21:31:52.204Z,9.76
2022-09-20T21:34:21.735Z,9.70
2022-09-20T21:36:51.256Z,9.66
2022-09-20T21:39:20.847Z,9.64
2022-09-20T21:41:50.459Z,9.65
2022-09-20T21:44:20.523Z,9.66
2022-09-20T21:46:52.690Z,9.64
2022-09-20T21:49:22.326Z,9.59
2022-09-20T21:51:53.318Z,9.57
2022-09-20T21:54:23.009Z,9.55
2022-09-20T21:56:55.690Z,9.51
2022-09-20T21:59:26.210Z,9.42
2022-09-20T22:01:58.506Z,9.36
2022-09-20T22:04:29.176Z,9.36
2022-09-20T22:06:59.364Z,9.30
2022-09-20T22:09:28.912Z,9.22
2022-09-20T22:11:58.519Z,9.15
2022-09-20T22:14:28.155Z,9.11
2022-09-20T22:17:00.376Z,9.10
2022-09-20T22:19:31.298Z,9.08
2022-09-20T22:22:00.976Z,9.07
2022-09-20T22:24:30.982Z,8.99
2022-09-20T22:27:00.578Z,8.95
2022-09-20T22:29:30.134Z,8.96
2022-09-20T22:32:02.303Z,8.91
2022-09-20T22:34:31.904Z,8.89
2022-09-20T22:37:01.636Z,8.87
2022-09-20T22:39:31.180Z,8.85
2022-09-20T22:42:00.724Z,8.83
2022-09-20T22:44:30.217Z,8.80
2022-09-20T22:47:02.349Z,8.75
2022-09-20T22:49:31.929Z,8.80
2022-09-20T22:52:01.637Z,8.74
2022-09-20T22:54:31.326Z,8.71
2022-09-20T22:57:01.459Z,8.74
2022-09-20T22:59:31.225Z,8.67
2022-09-20T23:02:03.326Z,8.61
2022-09-20T23:04:32.929Z,8.54
2022-09-20T23:07:02.463Z,8.53
2022-09-20T23:09:32.016Z,8.53
2022-09-20T23:12:01.565Z,8.49
2022-09-20T23:14:31.272Z,8.47
2022-09-20T23:17:03.406Z,8.47
2022-09-20T23:19:33.009Z,8.41
2022-09-20T23:22:02.654Z,8.39
2022-09-20T23:24:32.274Z,8.37
2022-09-20T23:27:01.794Z,8.40
2022-09-20T23:29:32.571Z,8.30
2022-09-20T23:32:04.962Z,8.29
2022-09-20T23:34:34.474Z,8.28
2022-09-20T23:37:04.029Z,8.25
2022-09-20T23:39:33.748Z,8.19
2022-09-20T23:42:03.786Z,8.27
2022-09-20T23:44:33.304Z,8.18
2022-09-20T23:47:05.501Z,8.16
2022-09-20T23:49:36.729Z,8.13
2022-09-20T23:52:06.445Z,8.09
2022-09-20T23:54:36.079Z,8.08
2022-09-20T23:57:05.799Z,8.06
2022-09-20T23:59:35.474Z,8.02
